createdAt,value
2022-12-25T00:01:22.653Z,17.67
2022-12-25T00:03:50.588Z,17.40
2022-12-25T00:06:18.363Z,18.38
2022-12-25T00:08:45.716Z,19.08
2022-12-25T00:11:15.863Z,18.10
2022-12-25T00:13:43.342Z,17.92
2022-12-25T00:16:23.151Z,20.20
2022-12-25T00:18:51.648Z,20.80
2022-12-25T00:21:19.420Z,20.02
2022-12-25T00:23:47.104Z,22.35
2022-12-25T00:26:18.376Z,20.60
2022-12-25T00:28:45.668Z,19.77
2022-12-25T00:31:15.805Z,19.83
2022-12-25T00:33:45.274Z,19.92
2022-12-25T00:36:14.400Z,19.83
2022-12-25T00:38:42.220Z,20.25
2022-12-25T00:41:12.205Z,14.88
2022-12-25T00:43:39.617Z,18.27
2022-12-25T00:46:07.489Z,19.35
2022-12-25T00:48:35.641Z,18.67
2022-12-25T00:51:05.897Z,18.00
2022-12-25T00:53:33.494Z,19.90
2022-12-25T00:56:04.150Z,24.58
2022-12-25T00:58:33.305Z,26.58
2022-12-25T01:01:00.840Z,34.03
2022-12-25T01:03:28.172Z,41.38
2022-12-25T01:06:13.433Z,36.65
2022-12-25T01:09:04.711Z,29.63
2022-12-25T01:11:32.437Z,22.05
2022-12-25T01:13:59.799Z,20.85
2022-12-25T01:16:27.518Z,24.63
2022-12-25T01:18:54.887Z,32.08
2022-12-25T01:21:22.574Z,32.63
2022-12-25T01:23:53.540Z,28.17
2022-12-25T01:26:22.877Z,30.20
2022-12-25T01:28:51.013Z,27.98
2022-12-25T01:31:20.782Z,32.20
2022-12-25T01:33:48.542Z,26.65
2022-12-25T01:36:24.835Z,20.55
2022-12-25T01:38:53.640Z,19.33
2022-12-25T01:41:23.268Z,18.00
2022-12-25T01:44:16.926Z,16.02
2022-12-25T01:46:44.588Z,16.17
2022-12-25T01:49:16.897Z,17.42
2022-12-25T01:51:48.458Z,18.77
2022-12-25T01:54:23.471Z,21.80
2022-12-25T01:56:53.844Z,27.55
2022-12-25T01:59:23.932Z,25.63
2022-12-25T02:01:51.600Z,21.83
2022-12-25T02:04:40.655Z,18.85
2022-12-25T02:07:10.966Z,17.98
2022-12-25T02:09:38.717Z,16.80
2022-12-25T02:12:08.093Z,17.17
2022-12-25T02:14:37.695Z,17.85
2022-12-25T02:17:11.797Z,16.52
2022-12-25T02:20:10.129Z,17.92
2022-12-25T02:23:03.678Z,16.75
2022-12-25T02:25:48.923Z,17.90
2022-12-25T02:28:18.887Z,18.02
2022-12-25T02:31:16.440Z,18.15
2022-12-25T02:34:03.473Z,16.73
2022-12-25T02:36:51.573Z,15.73
2022-12-25T02:39:50.284Z,16.60
2022-12-25T02:42:45.133Z,15.48
2022-12-25T02:45:34.755Z,17.00
2022-12-25T02:48:21.572Z,18.02
2022-12-25T02:51:08.988Z,16.88
2022-12-25T02:53:58.383Z,16.90
2022-12-25T02:56:46.776Z,18.40
2022-12-25T02:59:35.902Z,16.25
2022-12-25T03:02:23.273Z,18.25
2022-12-25T03:05:10.554Z,16.13
2022-12-25T03:07:42.242Z,15.10
2022-12-25T03:10:31.126Z,14.95
2022-12-25T03:13:11.933Z,14.02
2022-12-25T03:15:59.583Z,14.02
2022-12-25T03:18:29.473Z,13.68
2022-12-25T03:21:15.528Z,14.98
2022-12-25T03:24:07.100Z,13.95
2022-12-25T03:26:53.057Z,13.10
2022-12-25T03:29:38.886Z,13.50
2022-12-25T03:32:24.985Z,14.27
2022-12-25T03:35:25.960Z,13.30
2022-12-25T03:38:20.868Z,21.48
2022-12-25T03:41:25.727Z,23.20
2022-12-25T03:44:37.037Z,21.17
2022-12-25T03:47:36.092Z,33.17
2022-12-25T03:50:39.951Z,25.35
2022-12-25T03:53:38.935Z,20.90
2022-12-25T03:56:32.756Z,15.63
2022-12-25T03:59:23.598Z,16.25
2022-12-25T04:02:10.786Z,14.40
2022-12-25T04:04:56.773Z,17.15
2022-12-25T04:07:42.978Z,13.60
2022-12-25T04:10:29.098Z,16.10
2022-12-25T04:13:14.934Z,16.20
2022-12-25T04:16:00.984Z,12.73
2022-12-25T04:18:46.638Z,13.57
2022-12-25T04:21:32.607Z,13.57
2022-12-25T04:24:18.436Z,13.10
2022-12-25T04:27:04.188Z,14.25
2022-12-25T04:29:50.037Z,16.85
2022-12-25T04:32:35.879Z,20.13
2022-12-25T04:35:21.645Z,24.75
2022-12-25T04:37:48.875Z,18.58
2022-12-25T04:40:16.519Z,15.55
2022-12-25T04:42:43.877Z,14.90
2022-12-25T04:45:11.952Z,15.88
2022-12-25T04:47:39.253Z,13.45
2022-12-25T04:50:07.314Z,14.13
2022-12-25T04:52:38.854Z,13.55
2022-12-25T04:55:08.508Z,12.52
2022-12-25T04:57:36.230Z,13.38
2022-12-25T05:00:05.253Z,13.80
2022-12-25T05:02:32.694Z,15.00
2022-12-25T05:05:00.130Z,17.13
2022-12-25T05:07:27.411Z,12.13
2022-12-25T05:09:54.573Z,13.40
2022-12-25T05:12:21.743Z,13.05
2022-12-25T05:14:48.953Z,12.38
2022-12-25T05:17:16.209Z,13.52
2022-12-25T05:19:43.587Z,12.82
2022-12-25T05:22:10.705Z,13.90
2022-12-25T05:24:37.744Z,14.80
2022-12-25T05:27:04.943Z,15.18
2022-12-25T05:29:32.099Z,17.25
2022-12-25T05:31:59.131Z,16.58
2022-12-25T05:34:26.274Z,16.80
2022-12-25T05:36:53.454Z,15.82
2022-12-25T05:39:20.633Z,16.92
2022-12-25T05:41:47.830Z,16.10
2022-12-25T05:44:15.222Z,15.02
2022-12-25T05:46:42.660Z,14.80
2022-12-25T05:49:09.903Z,15.10
2022-12-25T05:51:37.103Z,17.02
2022-12-25T05:54:04.328Z,16.80
2022-12-25T05:56:31.504Z,27.52
2022-12-25T05:58:58.693Z,19.98
2022-12-25T06:01:28.684Z,15.45
2022-12-25T06:03:57.665Z,19.50
2022-12-25T06:06:25.359Z,15.68
2022-12-25T06:08:55.326Z,15.50
2022-12-25T06:11:23.281Z,12.85
2022-12-25T06:13:52.126Z,14.02
2022-12-25T06:16:20.179Z,13.63
2022-12-25T06:18:52.380Z,16.55
2022-12-25T06:21:19.729Z,11.27
2022-12-25T06:23:47.119Z,12.70
2022-12-25T06:26:18.341Z,13.15
2022-12-25T06:28:46.293Z,14.15
2022-12-25T06:31:18.554Z,16.48
2022-12-25T06:33:46.471Z,13.05
2022-12-25T06:36:22.760Z,13.27
2022-12-25T06:38:50.384Z,14.18
2022-12-25T06:41:22.862Z,15.80
2022-12-25T06:43:55.202Z,15.70
2022-12-25T06:46:24.331Z,17.90
2022-12-25T06:48:51.680Z,19.05
2022-12-25T06:51:37.321Z,16.10
2022-12-25T06:54:04.937Z,18.17
2022-12-25T06:56:33.629Z,15.48
2022-12-25T06:59:06.989Z,14.95
2022-12-25T07:01:39.993Z,13.55
2022-12-25T07:04:13.501Z,13.45
2022-12-25T07:06:40.698Z,14.90
2022-12-25T07:09:07.966Z,14.15
2022-12-25T07:11:35.077Z,15.63
2022-12-25T07:14:02.238Z,14.20
2022-12-25T07:16:29.336Z,15.23
2022-12-25T07:18:56.575Z,17.80
2022-12-25T07:21:23.727Z,14.75
2022-12-25T07:23:50.933Z,13.52
2022-12-25T07:26:18.237Z,14.75
2022-12-25T07:28:45.649Z,16.80
2022-12-25T07:31:15.164Z,20.05
2022-12-25T07:33:42.647Z,20.23
2022-12-25T07:36:13.530Z,20.92
2022-12-25T07:38:42.608Z,20.65
2022-12-25T07:41:13.069Z,20.08
2022-12-25T07:43:40.987Z,25.58
2022-12-25T07:46:08.844Z,49.72
2022-12-25T07:48:37.043Z,63.05
2022-12-25T07:51:07.106Z,46.53
2022-12-25T07:53:35.701Z,38.05
2022-12-25T07:56:08.932Z,37.55
2022-12-25T07:58:36.139Z,35.65
2022-12-25T08:01:10.117Z,29.55
2022-12-25T08:03:37.611Z,30.55
2022-12-25T08:06:09.644Z,28.15
2022-12-25T08:08:38.646Z,41.13
2022-12-25T08:11:08.098Z,34.30
2022-12-25T08:13:35.720Z,27.08
2022-12-25T08:16:05.398Z,25.65
2022-12-25T08:18:32.951Z,19.50
2022-12-25T08:21:05.721Z,23.48
2022-12-25T08:23:35.489Z,16.37
2022-12-25T08:26:05.315Z,17.70
2022-12-25T08:28:34.365Z,16.75
2022-12-25T08:31:07.867Z,17.38
2022-12-25T08:33:35.791Z,17.55
2022-12-25T08:36:05.514Z,17.95
2022-12-25T08:38:32.805Z,17.15
2022-12-25T08:41:00.104Z,20.00
2022-12-25T08:43:27.295Z,21.45
2022-12-25T08:45:54.518Z,16.95
2022-12-25T08:48:22.029Z,16.05
2022-12-25T08:50:51.068Z,17.92
2022-12-25T08:53:18.787Z,20.08
2022-12-25T08:55:46.095Z,18.23
2022-12-25T08:58:14.779Z,17.60
2022-12-25T09:00:42.369Z,15.40
2022-12-25T09:03:09.755Z,14.05
2022-12-25T09:05:37.865Z,13.38
2022-12-25T09:08:05.234Z,14.63
2022-12-25T09:10:35.770Z,15.15
2022-12-25T09:13:02.986Z,12.23
2022-12-25T09:15:30.488Z,12.90
2022-12-25T09:17:57.846Z,12.10
2022-12-25T09:20:25.150Z,10.88
2022-12-25T09:22:52.309Z,10.23
2022-12-25T09:25:19.536Z,10.80
2022-12-25T09:27:46.695Z,14.35
2022-12-25T09:30:14.183Z,16.42
2022-12-25T09:32:41.462Z,12.85
2022-12-25T09:35:09.088Z,10.80
2022-12-25T09:37:36.382Z,9.70
2022-12-25T09:40:04.282Z,11.80
2022-12-25T09:42:34.718Z,15.90
2022-12-25T09:45:12.963Z,11.07
2022-12-25T09:47:44.392Z,11.60
2022-12-25T09:50:14.423Z,11.73
2022-12-25T09:52:51.141Z,11.27
2022-12-25T09:55:22.758Z,11.25
2022-12-25T09:58:01.953Z,10.80
2022-12-25T10:00:39.724Z,9.80
2022-12-25T10:03:43.839Z,10.40
2022-12-25T10:06:27.683Z,9.48
2022-12-25T10:09:28.888Z,10.15
2022-12-25T10:12:24.048Z,18.15
2022-12-25T10:15:26.317Z,21.05
2022-12-25T10:18:05.601Z,48.55
2022-12-25T10:20:47.130Z,119.55
2022-12-25T10:23:22.944Z,101.65
2022-12-25T10:25:51.889Z,67.32
2022-12-25T10:28:41.821Z,18.80
2022-12-25T10:31:19.169Z,11.30
2022-12-25T10:33:47.147Z,9.43
2022-12-25T10:36:18.849Z,17.80
2022-12-25T10:38:47.420Z,22.42
2022-12-25T10:41:22.463Z,14.82
2022-12-25T10:43:55.708Z,19.33
2022-12-25T10:46:26.616Z,29.13
2022-12-25T10:49:03.241Z,15.15
2022-12-25T10:51:33.700Z,20.13
2022-12-25T10:54:03.364Z,11.45
2022-12-25T10:56:30.610Z,11.00
2022-12-25T10:59:07.970Z,13.27
2022-12-25T11:01:35.281Z,15.85
2022-12-25T11:04:02.942Z,14.77
2022-12-25T11:06:32.646Z,13.75
2022-12-25T11:09:03.302Z,11.80
2022-12-25T11:11:30.904Z,16.92
2022-12-25T11:14:01.840Z,11.70
2022-12-25T11:16:40.325Z,12.77
2022-12-25T11:19:31.986Z,14.57
2022-12-25T11:22:05.340Z,16.27
2022-12-25T11:24:33.825Z,17.92
2022-12-25T11:27:04.741Z,17.20
2022-12-25T11:29:46.788Z,15.30
2022-12-25T11:32:43.707Z,30.52
2022-12-25T11:35:14.962Z,24.35
2022-12-25T11:37:43.825Z,18.58
2022-12-25T11:40:22.082Z,20.25
2022-12-25T11:42:56.070Z,33.55
2022-12-25T11:45:35.096Z,71.53
2022-12-25T11:48:16.389Z,52.15
2022-12-25T11:50:49.567Z,33.13
2022-12-25T11:53:43.250Z,23.38
2022-12-25T11:56:22.254Z,22.88
2022-12-25T11:59:03.204Z,19.83
2022-12-25T12:01:49.496Z,13.90
2022-12-25T12:04:29.621Z,11.63
2022-12-25T12:07:17.226Z,10.32
2022-12-25T12:10:18.927Z,18.48
2022-12-25T12:13:05.145Z,18.35
2022-12-25T12:15:46.785Z,17.58
2022-12-25T12:18:28.821Z,20.55
2022-12-25T12:21:31.170Z,22.45
2022-12-25T12:24:06.150Z,16.98
2022-12-25T12:26:38.257Z,11.93
2022-12-25T12:29:08.860Z,13.25
2022-12-25T12:31:40.706Z,10.82
2022-12-25T12:34:17.217Z,15.57
2022-12-25T12:36:44.526Z,19.02
2022-12-25T12:39:30.049Z,18.13
2022-12-25T12:41:57.374Z,16.25
2022-12-25T12:44:27.451Z,35.60
2022-12-25T12:46:57.090Z,16.17
2022-12-25T12:49:24.306Z,15.48
2022-12-25T12:52:03.741Z,17.13
2022-12-25T12:54:31.000Z,17.80
2022-12-25T12:57:22.226Z,20.85
2022-12-25T12:59:49.547Z,27.00
2022-12-25T13:02:54.250Z,42.67
2022-12-25T13:05:34.010Z,54.28
2022-12-25T13:08:31.362Z,35.70
2022-12-25T13:11:18.898Z,29.05
2022-12-25T13:13:48.916Z,21.58
2022-12-25T13:16:44.137Z,28.88
2022-12-25T13:19:22.542Z,51.22
2022-12-25T13:22:08.025Z,50.05
2022-12-25T13:24:37.431Z,52.33
2022-12-25T13:27:23.918Z,46.38
2022-12-25T13:29:51.690Z,58.33
2022-12-25T13:32:30.852Z,59.95
2022-12-25T13:34:59.945Z,38.90
2022-12-25T13:37:30.962Z,48.70
2022-12-25T13:39:59.545Z,52.22
2022-12-25T13:42:36.637Z,36.17
2022-12-25T13:45:25.193Z,22.30
2022-12-25T13:47:55.535Z,28.75
2022-12-25T13:50:34.238Z,28.42
2022-12-25T13:53:14.263Z,36.50
2022-12-25T13:55:44.201Z,33.97
2022-12-25T13:58:21.833Z,44.25
2022-12-25T14:00:55.857Z,28.77
2022-12-25T14:03:35.694Z,24.73
2022-12-25T14:06:07.135Z,39.13
2022-12-25T14:08:35.948Z,26.70
2022-12-25T14:11:06.095Z,28.52
2022-12-25T14:13:37.977Z,23.52
2022-12-25T14:16:05.962Z,16.70
2022-12-25T14:18:33.636Z,27.52
2022-12-25T14:21:05.867Z,19.77
2022-12-25T14:23:46.090Z,25.33
2022-12-25T14:26:31.610Z,24.10
2022-12-25T14:29:17.200Z,25.75
2022-12-25T14:31:47.340Z,24.98
2022-12-25T14:34:26.340Z,35.42
2022-12-25T14:36:54.063Z,45.55
2022-12-25T14:39:27.195Z,35.10
2022-12-25T14:41:55.053Z,28.40
2022-12-25T14:44:39.633Z,27.38
2022-12-25T14:47:20.927Z,26.98
2022-12-25T14:49:48.621Z,15.52
2022-12-25T14:52:34.831Z,29.00
2022-12-25T14:55:06.280Z,23.20
2022-12-25T14:57:38.193Z,31.40
2022-12-25T15:00:09.265Z,20.42
2022-12-25T15:02:44.097Z,21.98
2022-12-25T15:05:36.903Z,25.02
2022-12-25T15:08:11.335Z,26.45
2022-12-25T15:10:59.809Z,21.67
2022-12-25T15:13:27.909Z,20.35
2022-12-25T15:16:00.056Z,18.10
2022-12-25T15:18:32.289Z,29.48
2022-12-25T15:20:59.649Z,37.03
2022-12-25T15:23:26.931Z,16.75
2022-12-25T15:25:54.333Z,23.33
2022-12-25T15:28:21.587Z,19.15
2022-12-25T15:30:50.168Z,22.20
2022-12-25T15:33:19.207Z,19.58
2022-12-25T15:35:46.711Z,30.98
2022-12-25T15:38:14.277Z,24.50
2022-12-25T15:40:42.718Z,18.42
2022-12-25T15:43:39.384Z,24.77
2022-12-25T15:46:02.155Z,19.05
2022-12-25T15:48:29.471Z,24.50
2022-12-25T15:50:56.621Z,14.30
2022-12-25T15:53:24.716Z,13.65
2022-12-25T15:55:52.748Z,12.82
2022-12-25T15:58:19.967Z,15.48
2022-12-25T16:00:47.231Z,39.08
2022-12-25T16:03:14.531Z,15.25
2022-12-25T16:05:41.911Z,11.68
2022-12-25T16:08:09.816Z,20.00
2022-12-25T16:10:39.081Z,16.98
2022-12-25T16:13:06.448Z,10.00
2022-12-25T16:15:33.689Z,10.77
2022-12-25T16:18:00.884Z,10.40
2022-12-25T16:20:28.203Z,13.63
2022-12-25T16:22:55.447Z,13.65
2022-12-25T16:25:22.761Z,18.80
2022-12-25T16:27:50.209Z,11.13
2022-12-25T16:30:18.627Z,36.35
2022-12-25T16:32:49.622Z,15.23
2022-12-25T16:35:18.037Z,13.38
2022-12-25T16:37:45.465Z,16.00
2022-12-25T16:40:12.674Z,20.75
2022-12-25T16:42:39.892Z,24.35
2022-12-25T16:45:07.666Z,19.75
2022-12-25T16:47:35.111Z,8.98
2022-12-25T16:50:04.011Z,19.98
2022-12-25T16:52:33.010Z,16.40
2022-12-25T16:55:00.992Z,15.77
2022-12-25T16:57:28.953Z,9.45
2022-12-25T16:59:56.311Z,24.63
2022-12-25T17:02:23.742Z,11.63
2022-12-25T17:04:51.227Z,13.57
2022-12-25T17:07:19.804Z,18.70
2022-12-25T17:09:50.483Z,10.85
2022-12-25T17:12:17.836Z,10.43
2022-12-25T17:14:45.140Z,14.23
2022-12-25T17:17:12.311Z,14.98
2022-12-25T17:19:39.495Z,8.93
2022-12-25T17:22:07.647Z,8.93
2022-12-25T17:24:37.544Z,21.77
2022-12-25T17:27:08.843Z,13.82
2022-12-25T17:29:40.174Z,15.80
2022-12-25T17:32:08.558Z,23.90
2022-12-25T17:34:36.007Z,28.83
2022-12-25T17:37:03.294Z,11.50
2022-12-25T17:39:30.934Z,20.63
2022-12-25T17:41:58.567Z,17.23
2022-12-25T17:44:26.208Z,13.90
2022-12-25T17:46:53.631Z,17.35
2022-12-25T17:49:22.502Z,17.33
2022-12-25T17:51:49.980Z,16.30
2022-12-25T17:54:17.148Z,11.05
2022-12-25T17:56:44.572Z,14.10
2022-12-25T17:59:18.550Z,9.80
2022-12-25T18:01:47.339Z,13.02
2022-12-25T18:04:14.790Z,10.60
2022-12-25T18:06:42.122Z,10.35
2022-12-25T18:09:11.406Z,7.30
2022-12-25T18:11:42.903Z,6.78
2022-12-25T18:14:13.583Z,4.22
2022-12-25T18:16:43.462Z,7.15
2022-12-25T18:19:12.610Z,7.25
2022-12-25T18:21:40.206Z,11.57
2022-12-25T18:24:08.299Z,11.82
2022-12-25T18:26:36.452Z,10.90
2022-12-25T18:29:04.300Z,7.32
2022-12-25T18:31:32.858Z,11.98
2022-12-25T18:34:01.580Z,6.38
2022-12-25T18:36:29.665Z,7.07
2022-12-25T18:38:57.988Z,6.28
2022-12-25T18:41:26.602Z,4.40
2022-12-25T18:43:55.784Z,5.72
2022-12-25T18:46:27.925Z,6.32
2022-12-25T18:48:56.658Z,5.30
2022-12-25T18:51:24.153Z,12.25
2022-12-25T18:53:51.779Z,14.90
2022-12-25T18:56:19.365Z,5.82
2022-12-25T18:58:47.772Z,8.07
2022-12-25T19:01:23.716Z,12.82
2022-12-25T19:03:53.868Z,11.70
2022-12-25T19:06:28.555Z,10.23
2022-12-25T19:08:56.653Z,32.03
2022-12-25T19:11:24.211Z,9.77
2022-12-25T19:13:51.504Z,13.25
2022-12-25T19:16:18.839Z,11.45
2022-12-25T19:18:46.612Z,14.80
2022-12-25T19:21:14.031Z,9.57
2022-12-25T19:23:41.327Z,16.48
2022-12-25T19:26:10.208Z,9.00
2022-12-25T19:28:38.947Z,13.32
2022-12-25T19:31:08.206Z,7.93
2022-12-25T19:33:36.960Z,13.95
2022-12-25T19:36:12.738Z,15.73
2022-12-25T19:38:40.080Z,17.05
2022-12-25T19:41:13.116Z,9.85
2022-12-25T19:43:41.870Z,15.50
2022-12-25T19:46:15.473Z,8.73
2022-12-25T19:48:42.682Z,9.88
2022-12-25T19:51:18.642Z,10.77
2022-12-25T19:53:47.030Z,16.23
2022-12-25T19:56:15.196Z,6.22
2022-12-25T19:58:42.448Z,9.27
2022-12-25T20:01:13.157Z,12.70
2022-12-25T20:03:46.107Z,12.45
2022-12-25T20:06:22.241Z,10.02
2022-12-25T20:08:52.626Z,7.70
2022-12-25T20:11:21.342Z,18.63
2022-12-25T20:13:48.621Z,15.95
2022-12-25T20:16:15.811Z,10.70
2022-12-25T20:18:43.161Z,14.20
2022-12-25T20:21:18.863Z,4.90
2022-12-25T20:23:48.139Z,17.35
2022-12-25T20:26:17.538Z,10.02
2022-12-25T20:28:45.464Z,8.70
2022-12-25T20:31:16.200Z,7.80
2022-12-25T20:33:43.786Z,9.75
2022-12-25T20:36:11.825Z,10.82
2022-12-25T20:38:39.864Z,12.57
2022-12-25T20:41:27.792Z,6.00
2022-12-25T20:43:56.363Z,8.23
2022-12-25T20:46:24.225Z,6.57
2022-12-25T20:48:53.201Z,7.07
2022-12-25T20:51:25.972Z,8.98
2022-12-25T20:53:53.694Z,8.57
2022-12-25T20:56:23.334Z,6.40
2022-12-25T20:58:58.260Z,7.40
2022-12-25T21:01:25.840Z,5.68
2022-12-25T21:03:53.429Z,4.60
2022-12-25T21:06:21.897Z,5.55
2022-12-25T21:08:49.390Z,11.27
2022-12-25T21:11:18.214Z,5.22
2022-12-25T21:13:46.443Z,9.40
2022-12-25T21:16:16.823Z,7.53
2022-12-25T21:18:44.407Z,4.57
2022-12-25T21:21:11.970Z,5.05
2022-12-25T21:23:40.436Z,8.32
2022-12-25T21:26:11.171Z,6.03
2022-12-25T21:28:38.536Z,15.73
2022-12-25T21:31:06.996Z,7.20
2022-12-25T21:33:53.148Z,7.57
2022-12-25T21:36:26.891Z,4.15
2022-12-25T21:39:07.848Z,6.10
2022-12-25T21:41:37.660Z,6.00
2022-12-25T21:44:06.309Z,8.77
2022-12-25T21:46:33.797Z,5.57
2022-12-25T21:49:02.304Z,4.43
2022-12-25T21:51:50.552Z,4.35
2022-12-25T21:54:19.501Z,5.45
2022-12-25T21:56:47.726Z,6.70
2022-12-25T21:59:18.395Z,5.75
2022-12-25T22:01:46.774Z,7.40
2022-12-25T22:04:15.886Z,7.57
2022-12-25T22:07:02.376Z,7.50
2022-12-25T22:09:29.698Z,3.42
2022-12-25T22:12:15.719Z,4.00
2022-12-25T22:14:55.243Z,4.28
2022-12-25T22:17:47.704Z,5.55
2022-12-25T22:20:24.361Z,4.25
2022-12-25T22:22:52.033Z,4.15
2022-12-25T22:25:19.685Z,8.02
2022-12-25T22:27:48.110Z,3.90
2022-12-25T22:30:21.370Z,4.50
2022-12-25T22:32:48.623Z,4.25
2022-12-25T22:35:16.879Z,7.53
2022-12-25T22:37:44.864Z,6.35
2022-12-25T22:40:15.747Z,5.43
2022-12-25T22:42:43.345Z,5.82
2022-12-25T22:45:11.269Z,6.57
2022-12-25T22:47:38.579Z,4.93
2022-12-25T22:50:06.561Z,4.15
2022-12-25T22:52:33.914Z,4.30
2022-12-25T22:55:02.571Z,4.55
2022-12-25T22:57:29.791Z,3.85
2022-12-25T22:59:57.096Z,4.68
2022-12-25T23:02:24.498Z,5.03
2022-12-25T23:04:51.808Z,4.30
2022-12-25T23:07:20.602Z,5.90
2022-12-25T23:09:47.851Z,4.88
2022-12-25T23:12:33.448Z,4.25
2022-12-25T23:15:00.618Z,4.30
2022-12-25T23:17:46.161Z,3.80
2022-12-25T23:20:33.903Z,3.33
2022-12-25T23:23:20.066Z,4.50
2022-12-25T23:26:05.893Z,4.22
2022-12-25T23:28:51.792Z,5.00
2022-12-25T23:31:20.721Z,4.38
2022-12-25T23:33:47.996Z,4.45
2022-12-25T23:36:15.257Z,5.07
2022-12-25T23:38:42.430Z,5.05
2022-12-25T23:41:09.679Z,5.47
2022-12-25T23:43:36.827Z,4.63
2022-12-25T23:46:04.041Z,8.35
2022-12-25T23:48:31.308Z,6.30
2022-12-25T23:51:03.966Z,5.05
2022-12-25T23:53:31.889Z,5.40
2022-12-25T23:55:59.562Z,7.30
2022-12-25T23:58:28.683Z,5.30
